createdAt,value
2023-03-16T00:00:19.814Z,7.80
2023-03-16T00:02:47.429Z,7.70
2023-03-16T00:05:15.571Z,7.70
2023-03-16T00:07:43.306Z,7.90
2023-03-16T00:10:13.570Z,7.80
2023-03-16T00:12:43.781Z,7.80
2023-03-16T00:15:14.599Z,7.80
2023-03-16T00:20:11.259Z,7.90
2023-03-16T00:22:38.787Z,7.90
2023-03-16T00:25:08.806Z,7.90
2023-03-16T00:27:36.312Z,7.90
2023-03-16T00:30:04.828Z,7.90
2023-03-16T00:32:34.729Z,7.90
2023-03-16T00:35:03.353Z,8.00
2023-03-16T00:37:32.919Z,8.00
2023-03-16T00:40:01.204Z,8.00
2023-03-16T00:42:30.621Z,8.00
2023-03-16T00:45:00.421Z,8.00
2023-03-16T00:47:31.180Z,8.10
2023-03-16T00:50:00.155Z,8.10
2023-03-16T00:52:28.444Z,8.10
2023-03-16T00:54:56.316Z,8.20
2023-03-16T00:57:25.512Z,8.20
2023-03-16T00:59:53.115Z,8.20
2023-03-16T01:02:24.523Z,8.20
2023-03-16T01:04:54.972Z,8.20
2023-03-16T01:07:22.466Z,9.20
2023-03-16T01:12:20.022Z,8.20
2023-03-16T01:14:48.365Z,8.30
2023-03-16T01:17:17.623Z,8.20
2023-03-16T01:19:46.177Z,8.30
2023-03-16T01:22:14.420Z,8.00
2023-03-16T01:24:45.326Z,8.30
2023-03-16T01:27:14.224Z,8.20
2023-03-16T01:29:43.629Z,8.50
2023-03-16T01:32:12.588Z,8.60
2023-03-16T01:34:40.403Z,8.30
2023-03-16T01:37:08.484Z,8.50
2023-03-16T01:42:29.535Z,8.40
2023-03-16T01:45:05.612Z,8.40
2023-03-16T01:47:39.662Z,9.50
2023-03-16T01:50:13.344Z,8.90
2023-03-16T01:52:42.927Z,8.50
2023-03-16T01:55:14.242Z,8.20
2023-03-16T01:57:46.636Z,8.40
2023-03-16T02:00:23.399Z,8.40
2023-03-16T02:03:17.738Z,8.60
2023-03-16T02:06:13.362Z,8.40
2023-03-16T02:08:47.401Z,8.40
2023-03-16T02:11:19.465Z,8.40
2023-03-16T02:14:00.593Z,8.90
2023-03-16T02:16:28.093Z,8.50
2023-03-16T02:18:55.610Z,8.50
2023-03-16T02:21:49.108Z,8.50
2023-03-16T02:24:16.666Z,8.50
2023-03-16T02:26:53.877Z,8.50
2023-03-16T02:29:29.739Z,8.90
2023-03-16T02:32:00.103Z,9.20
2023-03-16T02:34:28.709Z,9.20
2023-03-16T02:36:57.084Z,8.70
2023-03-16T02:39:26.098Z,8.70
2023-03-16T02:41:53.537Z,8.70
2023-03-16T02:44:25.526Z,8.80
2023-03-16T02:46:59.449Z,8.80
2023-03-16T02:49:47.158Z,9.80
2023-03-16T02:52:16.133Z,8.90
2023-03-16T02:54:43.881Z,9.00
2023-03-16T02:57:11.687Z,9.00
2023-03-16T02:59:39.169Z,8.90
2023-03-16T03:02:08.446Z,9.20
2023-03-16T03:07:06.990Z,9.10
2023-03-16T03:09:49.057Z,9.10
2023-03-16T03:12:16.336Z,9.30
2023-03-16T03:14:44.329Z,9.30
2023-03-16T03:17:13.531Z,10.40
2023-03-16T03:19:41.080Z,9.20
2023-03-16T03:22:08.692Z,9.10
2023-03-16T03:24:36.116Z,9.20
2023-03-16T03:27:05.964Z,9.50
2023-03-16T03:29:36.528Z,9.20
2023-03-16T03:32:04.955Z,9.20
2023-03-16T03:34:32.765Z,9.20
2023-03-16T03:37:01.136Z,9.30
2023-03-16T03:41:56.262Z,9.40
2023-03-16T03:44:24.932Z,9.40
2023-03-16T03:46:52.649Z,9.60
2023-03-16T03:49:25.595Z,9.50
2023-03-16T03:51:53.052Z,9.60
2023-03-16T03:54:25.863Z,9.90
2023-03-16T03:57:03.231Z,9.60
2023-03-16T03:59:31.229Z,9.60
2023-03-16T04:02:28.046Z,9.70
2023-03-16T04:07:23.834Z,9.60
2023-03-16T04:09:55.312Z,9.60
2023-03-16T04:12:28.139Z,9.60
2023-03-16T04:14:55.971Z,9.80
2023-03-16T04:19:54.025Z,9.70
2023-03-16T04:22:23.326Z,9.90
2023-03-16T04:24:52.289Z,9.60
2023-03-16T04:27:21.193Z,10.80
2023-03-16T04:29:48.445Z,9.80
2023-03-16T04:32:15.971Z,9.70
2023-03-16T04:34:47.146Z,9.80
2023-03-16T04:37:15.761Z,9.70
2023-03-16T04:39:45.150Z,9.80
2023-03-16T04:42:12.760Z,9.80
2023-03-16T04:44:44.523Z,9.70
2023-03-16T04:47:16.024Z,10.60
2023-03-16T04:49:44.519Z,9.90
2023-03-16T04:52:12.950Z,9.70
2023-03-16T04:57:10.071Z,9.80
2023-03-16T04:59:42.878Z,9.80
2023-03-16T05:02:20.008Z,9.80
2023-03-16T05:04:48.923Z,10.30
2023-03-16T05:07:17.536Z,9.60
2023-03-16T05:09:49.598Z,9.90
2023-03-16T05:12:17.586Z,10.80
2023-03-16T05:14:46.108Z,10.10
2023-03-16T05:17:22.226Z,9.90
2023-03-16T05:19:50.051Z,10.00
2023-03-16T05:22:18.827Z,10.40
2023-03-16T05:25:05.542Z,10.10
2023-03-16T05:27:34.275Z,9.60
2023-03-16T05:30:03.217Z,9.70
2023-03-16T05:32:32.350Z,9.50
2023-03-16T05:34:59.833Z,9.50
2023-03-16T05:37:27.180Z,9.60
2023-03-16T05:39:54.613Z,9.50
2023-03-16T05:44:55.765Z,9.40
2023-03-16T05:47:37.316Z,10.10
2023-03-16T05:50:11.286Z,9.40
2023-03-16T05:52:41.679Z,9.50
2023-03-16T05:55:17.771Z,9.70
2023-03-16T05:57:51.220Z,9.60
2023-03-16T06:00:19.506Z,9.60
2023-03-16T06:02:54.753Z,9.50
2023-03-16T06:05:25.078Z,9.70
2023-03-16T06:07:52.686Z,9.90
2023-03-16T06:10:20.931Z,9.80
2023-03-16T06:12:48.722Z,10.10
2023-03-16T06:15:16.612Z,9.70
2023-03-16T06:17:44.014Z,9.60
2023-03-16T06:20:13.420Z,9.70
2023-03-16T06:22:43.556Z,9.70
2023-03-16T06:25:13.054Z,10.00
2023-03-16T06:27:42.429Z,10.30
2023-03-16T06:30:14.430Z,9.70
2023-03-16T06:32:42.521Z,9.70
2023-03-16T06:35:10.575Z,9.80
2023-03-16T06:37:41.404Z,9.70
2023-03-16T06:40:33.137Z,10.00
2023-03-16T06:43:00.796Z,9.70
2023-03-16T06:45:28.356Z,9.70
2023-03-16T06:47:57.412Z,10.40
2023-03-16T06:50:24.760Z,10.60
2023-03-16T06:52:52.219Z,9.80
2023-03-16T06:55:20.065Z,9.80
2023-03-16T06:57:49.622Z,9.80
2023-03-16T07:00:19.615Z,9.70
2023-03-16T07:02:47.114Z,9.80
2023-03-16T07:05:15.167Z,9.80
2023-03-16T07:07:45.367Z,9.90
2023-03-16T07:10:15.411Z,9.60
2023-03-16T07:12:43.705Z,9.90
2023-03-16T07:15:12.113Z,9.90
2023-03-16T07:17:40.289Z,9.90
2023-03-16T07:20:10.809Z,10.30
2023-03-16T07:22:40.131Z,10.00
2023-03-16T07:25:11.328Z,10.10
2023-03-16T07:27:43.910Z,10.00
2023-03-16T07:30:14.176Z,10.00
2023-03-16T07:32:43.423Z,10.10
2023-03-16T07:35:11.812Z,10.00
2023-03-16T07:37:39.852Z,10.10
2023-03-16T07:40:09.632Z,10.00
2023-03-16T07:42:37.854Z,10.10
2023-03-16T07:45:10.443Z,10.10
2023-03-16T07:47:38.525Z,10.10
2023-03-16T07:50:16.934Z,10.10
2023-03-16T07:52:46.571Z,10.10
2023-03-16T07:55:15.206Z,10.10
2023-03-16T07:57:47.826Z,10.10
2023-03-16T08:00:23.870Z,10.20
2023-03-16T08:02:52.675Z,10.20
2023-03-16T08:05:20.284Z,10.20
2023-03-16T08:07:54.388Z,10.20
2023-03-16T08:10:24.942Z,10.20
2023-03-16T08:13:00.206Z,10.30
2023-03-16T08:15:28.010Z,10.30
2023-03-16T08:18:03.003Z,10.30
2023-03-16T08:20:30.852Z,10.30
2023-03-16T08:22:58.610Z,10.30
2023-03-16T08:25:29.550Z,11.70
2023-03-16T08:28:12.647Z,10.30
2023-03-16T08:30:51.751Z,10.30
2023-03-16T08:33:27.956Z,11.10
2023-03-16T08:35:56.086Z,10.20
2023-03-16T08:38:23.966Z,10.60
2023-03-16T08:40:52.869Z,10.40
2023-03-16T08:43:24.053Z,10.40
2023-03-16T08:45:52.689Z,10.80
2023-03-16T08:48:23.892Z,10.40
2023-03-16T08:50:52.113Z,10.80
2023-03-16T08:53:19.632Z,11.60
2023-03-16T08:55:47.740Z,10.50
2023-03-16T09:00:44.886Z,10.50
2023-03-16T09:03:13.536Z,10.80
2023-03-16T09:05:40.812Z,10.90
2023-03-16T09:08:08.848Z,11.20
2023-03-16T09:10:36.458Z,10.70
2023-03-16T09:13:04.018Z,10.60
2023-03-16T09:15:31.475Z,10.70
2023-03-16T09:18:00.706Z,10.80
2023-03-16T09:20:30.020Z,11.20
2023-03-16T09:22:58.977Z,10.70
2023-03-16T09:25:26.465Z,10.70
2023-03-16T09:27:54.058Z,10.90
2023-03-16T09:30:21.449Z,10.90
2023-03-16T09:32:49.305Z,10.90
2023-03-16T09:35:16.897Z,11.10
2023-03-16T09:38:01.109Z,11.10
2023-03-16T09:40:33.463Z,11.10
2023-03-16T09:43:16.955Z,11.50
2023-03-16T09:46:13.871Z,11.10
2023-03-16T09:48:41.340Z,11.30
2023-03-16T09:51:26.334Z,11.60
2023-03-16T09:53:58.825Z,11.60
2023-03-16T09:56:49.983Z,11.30
2023-03-16T09:59:18.585Z,11.40
2023-03-16T10:02:15.877Z,11.30
2023-03-16T10:05:00.850Z,11.40
2023-03-16T10:07:39.647Z,11.50
2023-03-16T10:10:38.406Z,11.50
2023-03-16T10:13:18.828Z,11.50
2023-03-16T10:15:48.412Z,11.70
2023-03-16T10:18:24.777Z,12.00
2023-03-16T10:20:53.452Z,12.10
2023-03-16T10:23:24.284Z,13.60
2023-03-16T10:25:56.669Z,12.60
2023-03-16T10:28:26.961Z,12.60
2023-03-16T10:30:58.533Z,12.40
2023-03-16T10:33:34.286Z,12.80
2023-03-16T10:36:30.759Z,12.70
2023-03-16T10:39:02.895Z,12.80
2023-03-16T10:41:38.698Z,13.00
2023-03-16T10:44:26.126Z,13.10
2023-03-16T10:47:07.564Z,13.00
2023-03-16T10:49:44.608Z,13.40
2023-03-16T10:52:19.789Z,13.60
2023-03-16T10:55:10.870Z,13.20
2023-03-16T10:57:42.790Z,13.60
2023-03-16T11:00:16.340Z,13.30
2023-03-16T11:02:44.046Z,13.40
2023-03-16T11:05:18.774Z,13.50
2023-03-16T11:08:02.065Z,13.50
2023-03-16T11:10:36.100Z,13.70
2023-03-16T11:13:17.606Z,13.80
2023-03-16T11:15:50.602Z,14.00
2023-03-16T11:18:32.598Z,14.10
2023-03-16T11:21:08.105Z,13.90
2023-03-16T11:23:41.237Z,14.00
2023-03-16T11:26:21.220Z,14.00
2023-03-16T11:28:59.503Z,14.00
2023-03-16T11:31:50.643Z,14.30
2023-03-16T11:34:38.207Z,14.30
2023-03-16T11:37:22.726Z,14.00
2023-03-16T11:40:01.456Z,14.00
2023-03-16T11:42:41.276Z,13.90
2023-03-16T11:45:21.687Z,13.90
2023-03-16T11:48:29.153Z,14.10
2023-03-16T11:51:11.740Z,13.90
2023-03-16T11:53:50.844Z,13.70
2023-03-16T11:56:35.850Z,14.10
2023-03-16T11:59:46.280Z,14.10
2023-03-16T12:02:45.999Z,14.00
2023-03-16T12:05:38.053Z,13.80
2023-03-16T12:08:17.377Z,13.60
2023-03-16T12:11:05.474Z,13.60
2023-03-16T12:14:10.298Z,13.70
2023-03-16T12:17:01.067Z,13.70
2023-03-16T12:19:44.657Z,13.70
2023-03-16T12:22:21.484Z,13.80
2023-03-16T12:24:49.232Z,14.00
2023-03-16T12:27:20.575Z,14.40
2023-03-16T12:30:09.750Z,13.60
2023-03-16T12:32:53.495Z,13.40
2023-03-16T12:35:42.449Z,13.50
2023-03-16T12:38:22.089Z,13.50
2023-03-16T12:41:17.956Z,13.60
2023-03-16T12:44:21.238Z,13.70
2023-03-16T12:47:20.449Z,13.80
2023-03-16T12:49:49.083Z,13.70
2023-03-16T12:52:16.481Z,13.80
2023-03-16T12:54:52.741Z,14.50
2023-03-16T12:57:24.870Z,14.30
2023-03-16T12:59:58.952Z,14.40
2023-03-16T13:02:31.811Z,14.70
2023-03-16T13:05:02.750Z,15.70
2023-03-16T13:07:31.869Z,15.60
2023-03-16T13:10:14.845Z,16.00
2023-03-16T13:12:46.234Z,16.30
2023-03-16T13:15:23.512Z,15.80
2023-03-16T13:18:11.014Z,16.00
2023-03-16T13:20:58.189Z,15.40
2023-03-16T13:23:54.384Z,15.50
2023-03-16T13:26:43.962Z,15.30
2023-03-16T13:29:23.784Z,15.50
2023-03-16T13:31:52.659Z,15.50
2023-03-16T13:34:48.800Z,15.50
2023-03-16T13:37:32.000Z,15.60
2023-03-16T13:40:02.209Z,15.20
2023-03-16T13:42:32.525Z,15.20
2023-03-16T13:45:13.290Z,15.30
2023-03-16T13:47:44.338Z,15.10
2023-03-16T13:50:13.896Z,15.40
2023-03-16T13:52:43.210Z,15.40
2023-03-16T13:55:17.395Z,15.80
2023-03-16T13:57:46.235Z,15.70
2023-03-16T14:00:15.779Z,16.10
2023-03-16T14:02:45.279Z,16.50
2023-03-16T14:05:19.944Z,16.50
2023-03-16T14:07:50.912Z,16.90
2023-03-16T14:10:19.730Z,17.20
2023-03-16T14:12:53.843Z,16.90
2023-03-16T14:15:25.643Z,17.10
2023-03-16T14:17:53.951Z,16.70
2023-03-16T14:20:28.701Z,16.80
2023-03-16T14:22:56.041Z,16.60
2023-03-16T14:25:27.559Z,16.40
2023-03-16T14:28:01.613Z,16.60
2023-03-16T14:30:30.750Z,15.80
2023-03-16T14:33:04.272Z,15.60
2023-03-16T14:35:40.814Z,15.40
2023-03-16T14:38:27.236Z,15.30
2023-03-16T14:41:04.008Z,15.10
2023-03-16T14:43:35.791Z,15.00
2023-03-16T14:46:07.528Z,14.90
2023-03-16T14:48:36.052Z,14.70
2023-03-16T14:53:31.926Z,13.60
2023-03-16T14:55:59.560Z,14.60
2023-03-16T14:58:26.945Z,14.50
2023-03-16T15:00:54.968Z,14.50
2023-03-16T15:03:35.989Z,14.70
2023-03-16T15:06:03.711Z,14.90
2023-03-16T15:08:34.247Z,15.00
2023-03-16T15:11:05.860Z,15.10
2023-03-16T15:13:53.274Z,15.00
2023-03-16T15:16:24.867Z,15.10
2023-03-16T15:18:52.518Z,14.90
2023-03-16T15:21:23.318Z,15.20
2023-03-16T15:23:50.814Z,15.30
2023-03-16T15:26:25.044Z,15.30
2023-03-16T15:28:53.177Z,15.40
2023-03-16T15:31:21.064Z,15.50
2023-03-16T15:33:48.541Z,15.50
2023-03-16T15:36:21.372Z,15.60
2023-03-16T15:38:51.381Z,15.70
2023-03-16T15:41:19.538Z,15.40
2023-03-16T15:43:47.852Z,15.90
2023-03-16T15:46:15.240Z,15.80
2023-03-16T15:48:42.664Z,16.10
2023-03-16T15:51:31.382Z,16.20
2023-03-16T15:54:02.100Z,16.00
2023-03-16T15:56:41.115Z,15.90
2023-03-16T15:59:18.798Z,16.00
2023-03-16T16:01:48.445Z,16.20
2023-03-16T16:04:19.718Z,16.10
2023-03-16T16:06:48.477Z,15.70
2023-03-16T16:09:16.398Z,15.60
2023-03-16T16:11:47.156Z,15.40
2023-03-16T16:14:16.880Z,15.20
2023-03-16T16:16:48.492Z,15.10
2023-03-16T16:19:16.604Z,15.40
2023-03-16T16:21:44.361Z,15.60
2023-03-16T16:24:12.079Z,15.70
2023-03-16T16:26:52.001Z,15.60
2023-03-16T16:29:27.526Z,15.70
2023-03-16T16:34:27.197Z,15.40
2023-03-16T16:36:55.965Z,15.30
2023-03-16T16:39:24.139Z,15.30
2023-03-16T16:41:54.681Z,15.10
2023-03-16T16:44:29.747Z,15.00
2023-03-16T16:46:59.732Z,14.90
2023-03-16T16:49:31.208Z,14.90
2023-03-16T16:51:59.778Z,14.90
2023-03-16T16:54:29.990Z,14.90
2023-03-16T16:56:59.412Z,15.00
2023-03-16T16:59:31.469Z,15.00
2023-03-16T17:02:01.996Z,14.70
2023-03-16T17:04:30.703Z,14.50
2023-03-16T17:07:01.959Z,14.60
2023-03-16T17:09:30.826Z,14.10
2023-03-16T17:12:01.018Z,14.30
2023-03-16T17:14:28.994Z,14.50
2023-03-16T17:16:57.705Z,14.30
2023-03-16T17:19:27.960Z,14.20
2023-03-16T17:21:57.705Z,14.20
2023-03-16T17:24:25.777Z,14.10
2023-03-16T17:26:56.175Z,14.30
2023-03-16T17:29:32.316Z,14.40
2023-03-16T17:32:08.100Z,14.10
2023-03-16T17:34:35.902Z,14.10
2023-03-16T17:37:03.283Z,14.00
2023-03-16T17:39:34.462Z,14.00
2023-03-16T17:42:09.726Z,13.90
2023-03-16T17:44:42.264Z,13.90
2023-03-16T17:47:25.212Z,14.00
2023-03-16T17:49:53.461Z,13.80
2023-03-16T17:52:24.047Z,13.80
2023-03-16T17:54:52.882Z,13.80
2023-03-16T17:57:25.160Z,14.10
2023-03-16T17:59:53.009Z,14.00
2023-03-16T18:02:54.091Z,13.60
2023-03-16T18:05:23.823Z,13.60
2023-03-16T18:07:51.945Z,13.80
2023-03-16T18:10:26.571Z,13.70
2023-03-16T18:13:07.813Z,13.60
2023-03-16T18:15:36.635Z,13.70
2023-03-16T18:18:07.702Z,13.80
2023-03-16T18:20:36.612Z,13.50
2023-03-16T18:23:22.548Z,13.60
2023-03-16T18:25:52.568Z,13.50
2023-03-16T18:28:20.572Z,14.10
2023-03-16T18:30:53.519Z,13.50
2023-03-16T18:33:23.933Z,13.40
2023-03-16T18:35:53.242Z,13.60
2023-03-16T18:38:43.671Z,13.60
2023-03-16T18:41:28.914Z,13.60
2023-03-16T18:43:59.789Z,15.50
2023-03-16T18:46:33.291Z,13.60
2023-03-16T18:49:12.052Z,13.60
2023-03-16T18:51:40.574Z,13.60
2023-03-16T18:54:35.666Z,13.40
2023-03-16T18:57:04.501Z,13.40
2023-03-16T18:59:32.175Z,13.70
2023-03-16T19:01:59.693Z,13.50
2023-03-16T19:04:30.057Z,13.30
2023-03-16T19:06:57.764Z,13.50
2023-03-16T19:09:30.106Z,13.40
2023-03-16T19:11:58.389Z,13.30
2023-03-16T19:14:28.301Z,13.40
2023-03-16T19:16:55.616Z,13.30
2023-03-16T19:19:24.432Z,13.30
2023-03-16T19:21:57.280Z,13.30
2023-03-16T19:24:26.647Z,13.20
2023-03-16T19:26:54.629Z,13.30
2023-03-16T19:29:27.905Z,13.20
2023-03-16T19:31:57.772Z,13.20
2023-03-16T19:34:25.361Z,13.20
2023-03-16T19:36:53.017Z,13.20
2023-03-16T19:39:21.315Z,13.20
2023-03-16T19:41:55.253Z,13.10
2023-03-16T19:44:28.140Z,13.10
2023-03-16T19:46:56.077Z,13.00
2023-03-16T19:49:26.997Z,13.00
2023-03-16T19:51:55.312Z,13.00
2023-03-16T19:54:28.098Z,12.90
2023-03-16T19:56:58.112Z,12.90
2023-03-16T19:59:32.699Z,13.30
2023-03-16T20:02:00.898Z,12.90
2023-03-16T20:04:28.490Z,13.10
2023-03-16T20:06:56.099Z,13.00
2023-03-16T20:09:23.865Z,13.00
2023-03-16T20:11:52.065Z,13.60
2023-03-16T20:14:33.577Z,13.00
2023-03-16T20:17:01.760Z,12.90
2023-03-16T20:19:29.781Z,12.90
2023-03-16T20:21:57.327Z,12.90
2023-03-16T20:24:25.508Z,12.90
2023-03-16T20:26:54.168Z,12.90
2023-03-16T20:29:28.440Z,12.80
2023-03-16T20:31:56.862Z,12.80
2023-03-16T20:34:28.191Z,12.80
2023-03-16T20:36:56.008Z,12.80
2023-03-16T20:39:23.871Z,12.80
2023-03-16T20:41:52.142Z,12.80
2023-03-16T20:44:21.914Z,12.90
2023-03-16T20:46:49.750Z,13.10
2023-03-16T20:49:23.738Z,12.90
2023-03-16T20:51:51.877Z,13.00
2023-03-16T20:54:19.398Z,12.90
2023-03-16T20:56:48.047Z,13.30
2023-03-16T20:59:22.771Z,12.50
2023-03-16T21:01:51.097Z,12.60
2023-03-16T21:04:27.467Z,12.80
2023-03-16T21:06:57.050Z,13.00
2023-03-16T21:09:24.933Z,12.60
2023-03-16T21:11:52.303Z,12.60
2023-03-16T21:14:23.913Z,12.50
2023-03-16T21:16:53.145Z,12.70
2023-03-16T21:19:23.087Z,12.70
2023-03-16T21:21:51.385Z,12.90
2023-03-16T21:24:19.124Z,12.60
2023-03-16T21:26:47.497Z,12.80
2023-03-16T21:29:18.147Z,12.70
2023-03-16T21:31:45.597Z,12.60
2023-03-16T21:34:25.234Z,12.80
2023-03-16T21:36:53.219Z,12.60
2023-03-16T21:39:24.789Z,12.70
2023-03-16T21:41:52.329Z,12.70
2023-03-16T21:44:19.784Z,12.70
2023-03-16T21:46:49.967Z,12.70
2023-03-16T21:49:17.969Z,12.70
2023-03-16T21:51:45.419Z,12.70
2023-03-16T21:54:14.889Z,12.80
2023-03-16T21:56:42.357Z,12.80
2023-03-16T21:59:10.968Z,12.70
2023-03-16T22:01:50.976Z,12.50
2023-03-16T22:04:27.076Z,13.10
2023-03-16T22:06:54.663Z,12.60
2023-03-16T22:09:29.864Z,12.70
2023-03-16T22:11:57.350Z,13.10
2023-03-16T22:14:24.722Z,12.70
2023-03-16T22:16:52.214Z,12.60
2023-03-16T22:19:19.556Z,12.70
2023-03-16T22:21:48.554Z,12.90
2023-03-16T22:24:35.919Z,12.70
2023-03-16T22:27:04.459Z,12.60
2023-03-16T22:29:33.759Z,12.70
2023-03-16T22:32:05.314Z,12.90
2023-03-16T22:34:42.054Z,12.90
2023-03-16T22:37:12.350Z,12.70
2023-03-16T22:39:40.453Z,12.70
2023-03-16T22:42:22.651Z,12.70
2023-03-16T22:44:49.902Z,12.70
2023-03-16T22:47:26.142Z,13.10
2023-03-16T22:49:53.816Z,13.10
2023-03-16T22:52:28.140Z,12.90
2023-03-16T22:54:56.299Z,12.50
2023-03-16T22:57:23.672Z,12.80
2023-03-16T22:59:51.736Z,13.10
2023-03-16T23:02:22.126Z,12.90
2023-03-16T23:04:49.556Z,12.90
2023-03-16T23:07:17.147Z,12.80
2023-03-16T23:09:44.592Z,12.90
2023-03-16T23:12:19.326Z,12.90
2023-03-16T23:14:46.833Z,12.90
2023-03-16T23:17:19.468Z,13.10
2023-03-16T23:19:48.081Z,13.00
2023-03-16T23:22:15.750Z,13.00
2023-03-16T23:24:43.189Z,13.20
2023-03-16T23:27:19.208Z,12.30
2023-03-16T23:29:46.804Z,12.60
2023-03-16T23:32:17.029Z,13.20
2023-03-16T23:34:44.738Z,12.80
2023-03-16T23:37:12.560Z,12.80
2023-03-16T23:39:40.014Z,12.60
2023-03-16T23:42:07.782Z,12.90
2023-03-16T23:44:36.367Z,12.30
2023-03-16T23:47:03.825Z,12.70
2023-03-16T23:49:33.667Z,11.70
2023-03-16T23:52:01.750Z,12.80
2023-03-16T23:54:31.833Z,12.30
2023-03-16T23:56:59.225Z,12.60
2023-03-16T23:59:27.377Z,12.30
